sensor_id;sensor_type;location;lat;lon;timestamp;P1;durP1;ratioP1;P2;durP2;ratioP2
2061;SDS011;11070;51.336;12.340;2022-10-28T00:00:21;8.85;;;7.03;;
2061;SDS011;11070;51.336;12.340;2022-10-28T00:02:47;10.03;;;6.70;;
2061;SDS011;11070;51.336;12.340;2022-10-28T00:05:12;7.20;;;6.30;;
2061;SDS011;11070;51.336;12.340;2022-10-28T00:07:38;12.10;;;6.80;;
2061;SDS011;11070;51.336;12.340;2022-10-28T00:10:04;7.07;;;6.37;;
2061;SDS011;11070;51.336;12.340;2022-10-28T00:12:33;11.77;;;6.90;;
2061;SDS011;11070;51.336;12.340;2022-10-28T00:15:00;7.90;;;6.45;;
2061;SDS011;11070;51.336;12.340;2022-10-28T00:17:25;8.07;;;6.47;;
2061;SDS011;11070;51.336;12.340;2022-10-28T00:19:51;11.53;;;6.17;;
2061;SDS011;11070;51.336;12.340;2022-10-28T00:22:17;10.70;;;7.00;;
2061;SDS011;11070;51.336;12.340;2022-10-28T00:24:42;12.73;;;6.93;;
2061;SDS011;11070;51.336;12.340;2022-10-28T00:27:08;11.03;;;5.97;;
2061;SDS011;11070;51.336;12.340;2022-10-28T00:29:33;10.10;;;6.97;;
2061;SDS011;11070;51.336;12.340;2022-10-28T00:31:59;7.27;;;6.20;;
2061;SDS011;11070;51.336;12.340;2022-10-28T00:34:25;7.73;;;6.67;;
2061;SDS011;11070;51.336;12.340;2022-10-28T00:36:50;8.47;;;6.83;;
2061;SDS011;11070;51.336;12.340;2022-10-28T00:39:17;9.20;;;6.50;;
2061;SDS011;11070;51.336;12.340;2022-10-28T00:41:45;8.00;;;6.00;;
2061;SDS011;11070;51.336;12.340;2022-10-28T00:47:17;7.55;;;6.35;;
2061;SDS011;11070;51.336;12.340;2022-10-28T00:49:50;8.48;;;6.75;;
2061;SDS011;11070;51.336;12.340;2022-10-28T00:52:26;6.43;;;5.82;;
2061;SDS011;11070;51.336;12.340;2022-10-28T00:54:52;10.25;;;7.63;;
2061;SDS011;11070;51.336;12.340;2022-10-28T00:57:20;10.98;;;7.60;;
2061;SDS011;11070;51.336;12.340;2022-10-28T00:59:49;8.35;;;7.18;;
2061;SDS011;11070;51.336;12.340;2022-10-28T01:02:17;9.93;;;6.82;;
2061;SDS011;11070;51.336;12.340;2022-10-28T01:04:43;8.38;;;6.10;;
2061;SDS011;11070;51.336;12.340;2022-10-28T01:07:10;8.35;;;6.55;;
2061;SDS011;11070;51.336;12.340;2022-10-28T01:09:36;6.73;;;6.13;;
2061;SDS011;11070;51.336;12.340;2022-10-28T01:14:59;6.65;;;5.88;;
2061;SDS011;11070;51.336;12.340;2022-10-28T01:23:00;7.35;;;6.20;;
2061;SDS011;11070;51.336;12.340;2022-10-28T01:36:28;9.75;;;6.70;;
2061;SDS011;11070;51.336;12.340;2022-10-28T01:39:06;8.10;;;6.20;;
2061;SDS011;11070;51.336;12.340;2022-10-28T01:47:19;8.48;;;6.63;;
2061;SDS011;11070;51.336;12.340;2022-10-28T01:50:05;11.95;;;7.15;;
2061;SDS011;11070;51.336;12.340;2022-10-28T01:52:35;8.38;;;6.97;;
2061;SDS011;11070;51.336;12.340;2022-10-28T01:55:08;7.78;;;6.60;;
2061;SDS011;11070;51.336;12.340;2022-10-28T01:57:39;9.77;;;6.85;;
2061;SDS011;11070;51.336;12.340;2022-10-28T02:00:06;9.52;;;6.93;;
2061;SDS011;11070;51.336;12.340;2022-10-28T02:02:33;7.80;;;6.90;;
2061;SDS011;11070;51.336;12.340;2022-10-28T02:08:25;11.63;;;7.00;;
2061;SDS011;11070;51.336;12.340;2022-10-28T02:17:01;8.93;;;6.57;;
2061;SDS011;11070;51.336;12.340;2022-10-28T02:19:46;9.30;;;6.85;;
2061;SDS011;11070;51.336;12.340;2022-10-28T02:27:51;8.50;;;6.50;;
2061;SDS011;11070;51.336;12.340;2022-10-28T02:30:23;10.23;;;6.55;;
2061;SDS011;11070;51.336;12.340;2022-10-28T02:33:10;11.07;;;6.60;;
2061;SDS011;11070;51.336;12.340;2022-10-28T02:35:49;7.47;;;6.60;;
2061;SDS011;11070;51.336;12.340;2022-10-28T02:39:02;7.57;;;6.88;;
2061;SDS011;11070;51.336;12.340;2022-10-28T02:41:13;10.35;;;6.38;;
2061;SDS011;11070;51.336;12.340;2022-10-28T02:43:44;9.57;;;6.38;;
2061;SDS011;11070;51.336;12.340;2022-10-28T02:46:11;9.65;;;6.55;;
2061;SDS011;11070;51.336;12.340;2022-10-28T02:49:00;7.35;;;6.38;;
2061;SDS011;11070;51.336;12.340;2022-10-28T02:51:30;8.15;;;6.35;;
2061;SDS011;11070;51.336;12.340;2022-10-28T02:54:08;8.23;;;5.60;;
2061;SDS011;11070;51.336;12.340;2022-10-28T02:56:50;11.93;;;6.47;;
2061;SDS011;11070;51.336;12.340;2022-10-28T02:59:19;8.90;;;6.53;;
2061;SDS011;11070;51.336;12.340;2022-10-28T03:01:49;10.23;;;5.95;;
2061;SDS011;11070;51.336;12.340;2022-10-28T03:04:15;8.97;;;6.30;;
2061;SDS011;11070;51.336;12.340;2022-10-28T03:06:40;6.27;;;5.70;;
2061;SDS011;11070;51.336;12.340;2022-10-28T03:09:06;10.10;;;6.33;;
2061;SDS011;11070;51.336;12.340;2022-10-28T03:11:32;13.97;;;6.60;;
2061;SDS011;11070;51.336;12.340;2022-10-28T03:13:58;7.70;;;6.15;;
2061;SDS011;11070;51.336;12.340;2022-10-28T03:16:23;9.60;;;6.10;;
2061;SDS011;11070;51.336;12.340;2022-10-28T03:18:50;9.73;;;6.05;;
2061;SDS011;11070;51.336;12.340;2022-10-28T03:21:16;9.75;;;6.47;;
2061;SDS011;11070;51.336;12.340;2022-10-28T03:23:42;9.37;;;6.73;;
2061;SDS011;11070;51.336;12.340;2022-10-28T03:26:08;7.87;;;5.87;;
2061;SDS011;11070;51.336;12.340;2022-10-28T03:28:33;9.07;;;6.10;;
2061;SDS011;11070;51.336;12.340;2022-10-28T03:30:59;7.17;;;5.90;;
2061;SDS011;11070;51.336;12.340;2022-10-28T03:33:24;9.67;;;6.70;;
2061;SDS011;11070;51.336;12.340;2022-10-28T03:35:50;10.47;;;6.30;;
2061;SDS011;11070;51.336;12.340;2022-10-28T03:38:16;6.90;;;5.80;;
2061;SDS011;11070;51.336;12.340;2022-10-28T03:40:41;9.60;;;5.90;;
2061;SDS011;11070;51.336;12.340;2022-10-28T03:43:07;7.13;;;6.30;;
2061;SDS011;11070;51.336;12.340;2022-10-28T03:45:32;11.10;;;6.80;;
2061;SDS011;11070;51.336;12.340;2022-10-28T03:47:58;10.27;;;7.23;;
2061;SDS011;11070;51.336;12.340;2022-10-28T03:50:24;10.90;;;6.87;;
2061;SDS011;11070;51.336;12.340;2022-10-28T03:52:50;11.40;;;7.30;;
2061;SDS011;11070;51.336;12.340;2022-10-28T03:55:15;11.23;;;6.80;;
2061;SDS011;11070;51.336;12.340;2022-10-28T03:57:41;10.60;;;6.50;;
2061;SDS011;11070;51.336;12.340;2022-10-28T04:00:07;10.33;;;7.40;;
2061;SDS011;11070;51.336;12.340;2022-10-28T04:02:33;12.55;;;7.63;;
2061;SDS011;11070;51.336;12.340;2022-10-28T04:04:59;7.70;;;7.00;;
2061;SDS011;11070;51.336;12.340;2022-10-28T04:07:24;7.40;;;6.63;;
2061;SDS011;11070;51.336;12.340;2022-10-28T04:09:50;8.27;;;6.40;;
2061;SDS011;11070;51.336;12.340;2022-10-28T04:12:16;10.70;;;7.23;;
2061;SDS011;11070;51.336;12.340;2022-10-28T04:14:42;11.23;;;6.90;;
2061;SDS011;11070;51.336;12.340;2022-10-28T04:17:08;7.75;;;7.03;;
2061;SDS011;11070;51.336;12.340;2022-10-28T04:19:34;14.40;;;7.83;;
2061;SDS011;11070;51.336;12.340;2022-10-28T04:22:00;14.10;;;7.93;;
2061;SDS011;11070;51.336;12.340;2022-10-28T04:24:25;10.37;;;7.00;;
2061;SDS011;11070;51.336;12.340;2022-10-28T04:26:51;11.03;;;7.33;;
2061;SDS011;11070;51.336;12.340;2022-10-28T04:29:16;10.83;;;7.43;;
2061;SDS011;11070;51.336;12.340;2022-10-28T04:31:43;8.00;;;7.22;;
2061;SDS011;11070;51.336;12.340;2022-10-28T04:34:08;12.73;;;7.63;;
2061;SDS011;11070;51.336;12.340;2022-10-28T04:36:34;7.70;;;7.00;;
2061;SDS011;11070;51.336;12.340;2022-10-28T04:39:00;10.33;;;7.33;;
2061;SDS011;11070;51.336;12.340;2022-10-28T04:41:25;12.10;;;7.70;;
2061;SDS011;11070;51.336;12.340;2022-10-28T04:43:51;10.97;;;7.17;;
2061;SDS011;11070;51.336;12.340;2022-10-28T04:46:20;11.27;;;7.47;;
2061;SDS011;11070;51.336;12.340;2022-10-28T04:48:46;11.07;;;6.47;;
2061;SDS011;11070;51.336;12.340;2022-10-28T04:51:12;9.07;;;6.73;;
2061;SDS011;11070;51.336;12.340;2022-10-28T04:53:38;8.60;;;7.20;;
2061;SDS011;11070;51.336;12.340;2022-10-28T04:56:04;8.73;;;6.80;;
2061;SDS011;11070;51.336;12.340;2022-10-28T04:58:30;12.70;;;7.73;;
2061;SDS011;11070;51.336;12.340;2022-10-28T05:00:55;11.40;;;7.40;;
2061;SDS011;11070;51.336;12.340;2022-10-28T05:03:21;11.53;;;6.60;;
2061;SDS011;11070;51.336;12.340;2022-10-28T05:05:47;8.60;;;7.47;;
2061;SDS011;11070;51.336;12.340;2022-10-28T05:08:12;10.90;;;7.30;;
2061;SDS011;11070;51.336;12.340;2022-10-28T05:10:38;10.47;;;7.30;;
2061;SDS011;11070;51.336;12.340;2022-10-28T05:13:04;8.97;;;7.60;;
2061;SDS011;11070;51.336;12.340;2022-10-28T05:15:29;9.07;;;6.93;;
2061;SDS011;11070;51.336;12.340;2022-10-28T05:17:55;9.90;;;6.40;;
2061;SDS011;11070;51.336;12.340;2022-10-28T05:20:21;8.50;;;7.57;;
2061;SDS011;11070;51.336;12.340;2022-10-28T05:22:51;10.20;;;7.23;;
2061;SDS011;11070;51.336;12.340;2022-10-28T05:25:19;9.35;;;7.30;;
2061;SDS011;11070;51.336;12.340;2022-10-28T05:27:45;10.30;;;7.35;;
2061;SDS011;11070;51.336;12.340;2022-10-28T05:30:11;9.20;;;7.40;;
2061;SDS011;11070;51.336;12.340;2022-10-28T05:32:38;9.73;;;6.80;;
2061;SDS011;11070;51.336;12.340;2022-10-28T05:35:04;9.73;;;7.00;;
2061;SDS011;11070;51.336;12.340;2022-10-28T05:37:30;9.25;;;6.95;;
2061;SDS011;11070;51.336;12.340;2022-10-28T05:39:55;9.47;;;7.57;;
2061;SDS011;11070;51.336;12.340;2022-10-28T05:42:21;9.20;;;6.73;;
2061;SDS011;11070;51.336;12.340;2022-10-28T05:44:47;10.47;;;7.30;;
2061;SDS011;11070;51.336;12.340;2022-10-28T05:47:12;12.40;;;7.40;;
2061;SDS011;11070;51.336;12.340;2022-10-28T05:49:38;8.10;;;6.80;;
2061;SDS011;11070;51.336;12.340;2022-10-28T05:52:03;11.23;;;7.70;;
2061;SDS011;11070;51.336;12.340;2022-10-28T05:54:29;10.13;;;7.67;;
2061;SDS011;11070;51.336;12.340;2022-10-28T05:56:55;7.70;;;6.90;;
2061;SDS011;11070;51.336;12.340;2022-10-28T05:59:21;8.87;;;6.53;;
2061;SDS011;11070;51.336;12.340;2022-10-28T06:01:46;9.07;;;7.00;;
2061;SDS011;11070;51.336;12.340;2022-10-28T06:04:12;9.73;;;7.50;;
2061;SDS011;11070;51.336;12.340;2022-10-28T06:06:38;13.93;;;7.97;;
2061;SDS011;11070;51.336;12.340;2022-10-28T06:09:03;8.47;;;7.30;;
2061;SDS011;11070;51.336;12.340;2022-10-28T06:11:29;9.50;;;7.30;;
2061;SDS011;11070;51.336;12.340;2022-10-28T06:13:54;9.90;;;7.30;;
2061;SDS011;11070;51.336;12.340;2022-10-28T06:16:20;10.37;;;7.00;;
2061;SDS011;11070;51.336;12.340;2022-10-28T06:18:46;11.20;;;7.17;;
2061;SDS011;11070;51.336;12.340;2022-10-28T06:21:11;9.33;;;7.20;;
2061;SDS011;11070;51.336;12.340;2022-10-28T06:23:37;11.20;;;7.60;;
2061;SDS011;11070;51.336;12.340;2022-10-28T06:26:03;10.60;;;7.10;;
2061;SDS011;11070;51.336;12.340;2022-10-28T06:28:29;9.52;;;7.40;;
2061;SDS011;11070;51.336;12.340;2022-10-28T06:31:00;7.30;;;6.70;;
2061;SDS011;11070;51.336;12.340;2022-10-28T06:33:30;8.18;;;7.07;;
2061;SDS011;11070;51.336;12.340;2022-10-28T06:35:57;8.73;;;6.70;;
2061;SDS011;11070;51.336;12.340;2022-10-28T06:38:23;10.10;;;6.95;;
2061;SDS011;11070;51.336;12.340;2022-10-28T06:40:49;9.18;;;7.00;;
2061;SDS011;11070;51.336;12.340;2022-10-28T06:43:15;13.23;;;7.43;;
2061;SDS011;11070;51.336;12.340;2022-10-28T06:45:41;13.87;;;6.73;;
2061;SDS011;11070;51.336;12.340;2022-10-28T06:48:06;7.53;;;6.47;;
2061;SDS011;11070;51.336;12.340;2022-10-28T06:50:34;10.95;;;7.28;;
2061;SDS011;11070;51.336;12.340;2022-10-28T06:53:00;12.02;;;6.90;;
2061;SDS011;11070;51.336;12.340;2022-10-28T06:55:26;10.68;;;6.57;;
2061;SDS011;11070;51.336;12.340;2022-10-28T06:57:52;9.75;;;6.97;;
2061;SDS011;11070;51.336;12.340;2022-10-28T07:00:18;13.02;;;7.03;;
2061;SDS011;11070;51.336;12.340;2022-10-28T07:02:49;10.27;;;6.30;;
2061;SDS011;11070;51.336;12.340;2022-10-28T07:05:16;7.72;;;6.93;;
2061;SDS011;11070;51.336;12.340;2022-10-28T07:07:42;8.33;;;6.20;;
2061;SDS011;11070;51.336;12.340;2022-10-28T07:10:07;9.60;;;6.57;;
2061;SDS011;11070;51.336;12.340;2022-10-28T07:12:33;7.95;;;6.32;;
2061;SDS011;11070;51.336;12.340;2022-10-28T07:14:59;9.90;;;6.30;;
2061;SDS011;11070;51.336;12.340;2022-10-28T07:17:25;7.83;;;6.60;;
2061;SDS011;11070;51.336;12.340;2022-10-28T07:19:51;9.00;;;6.07;;
2061;SDS011;11070;51.336;12.340;2022-10-28T07:22:16;8.73;;;6.07;;
2061;SDS011;11070;51.336;12.340;2022-10-28T07:24:42;13.20;;;6.97;;
2061;SDS011;11070;51.336;12.340;2022-10-28T07:27:08;9.70;;;6.00;;
2061;SDS011;11070;51.336;12.340;2022-10-28T07:29:33;8.02;;;6.65;;
2061;SDS011;11070;51.336;12.340;2022-10-28T07:31:59;8.70;;;6.07;;
2061;SDS011;11070;51.336;12.340;2022-10-28T07:34:25;8.37;;;6.00;;
2061;SDS011;11070;51.336;12.340;2022-10-28T07:36:52;8.57;;;5.80;;
2061;SDS011;11070;51.336;12.340;2022-10-28T07:39:18;10.00;;;5.63;;
2061;SDS011;11070;51.336;12.340;2022-10-28T07:41:45;8.02;;;6.43;;
2061;SDS011;11070;51.336;12.340;2022-10-28T07:44:11;6.10;;;5.38;;
2061;SDS011;11070;51.336;12.340;2022-10-28T07:46:37;8.47;;;5.60;;
2061;SDS011;11070;51.336;12.340;2022-10-28T07:49:02;8.13;;;5.60;;
2061;SDS011;11070;51.336;12.340;2022-10-28T07:51:29;6.13;;;5.47;;
2061;SDS011;11070;51.336;12.340;2022-10-28T07:53:55;8.93;;;5.63;;
2061;SDS011;11070;51.336;12.340;2022-10-28T07:56:21;8.90;;;5.88;;
2061;SDS011;11070;51.336;12.340;2022-10-28T07:58:47;6.43;;;5.43;;
2061;SDS011;11070;51.336;12.340;2022-10-28T08:01:14;8.30;;;6.17;;
2061;SDS011;11070;51.336;12.340;2022-10-28T08:03:41;8.07;;;5.57;;
2061;SDS011;11070;51.336;12.340;2022-10-28T08:06:11;7.17;;;6.03;;
2061;SDS011;11070;51.336;12.340;2022-10-28T08:08:41;7.00;;;5.60;;
2061;SDS011;11070;51.336;12.340;2022-10-28T08:11:11;9.18;;;5.85;;
2061;SDS011;11070;51.336;12.340;2022-10-28T08:13:43;8.20;;;5.40;;
2061;SDS011;11070;51.336;12.340;2022-10-28T08:16:09;7.97;;;5.43;;
2061;SDS011;11070;51.336;12.340;2022-10-28T08:18:35;7.00;;;5.40;;
2061;SDS011;11070;51.336;12.340;2022-10-28T08:21:03;10.60;;;6.13;;
2061;SDS011;11070;51.336;12.340;2022-10-28T08:23:29;10.43;;;5.75;;
2061;SDS011;11070;51.336;12.340;2022-10-28T08:25:55;7.60;;;5.60;;
2061;SDS011;11070;51.336;12.340;2022-10-28T08:28:21;8.97;;;5.43;;
2061;SDS011;11070;51.336;12.340;2022-10-28T08:30:48;10.40;;;6.00;;
2061;SDS011;11070;51.336;12.340;2022-10-28T08:33:14;9.93;;;5.53;;
2061;SDS011;11070;51.336;12.340;2022-10-28T08:35:40;9.73;;;5.47;;
2061;SDS011;11070;51.336;12.340;2022-10-28T08:38:06;7.70;;;5.30;;
2061;SDS011;11070;51.336;12.340;2022-10-28T08:40:41;7.30;;;5.40;;
2061;SDS011;11070;51.336;12.340;2022-10-28T08:46:21;6.47;;;5.60;;
2061;SDS011;11070;51.336;12.340;2022-10-28T08:49:00;9.95;;;5.60;;
2061;SDS011;11070;51.336;12.340;2022-10-28T08:51:37;8.05;;;5.88;;
2061;SDS011;11070;51.336;12.340;2022-10-28T08:54:26;10.18;;;6.38;;
2061;SDS011;11070;51.336;12.340;2022-10-28T08:57:00;12.95;;;5.63;;
2061;SDS011;11070;51.336;12.340;2022-10-28T08:59:35;5.97;;;5.25;;
2061;SDS011;11070;51.336;12.340;2022-10-28T09:02:20;9.02;;;5.65;;
2061;SDS011;11070;51.336;12.340;2022-10-28T09:07:43;6.75;;;5.55;;
2061;SDS011;11070;51.336;12.340;2022-10-28T09:10:09;6.90;;;5.90;;
2061;SDS011;11070;51.336;12.340;2022-10-28T09:20:56;8.03;;;5.83;;
2061;SDS011;11070;51.336;12.340;2022-10-28T09:23:35;10.83;;;5.70;;
2061;SDS011;11070;51.336;12.340;2022-10-28T09:31:49;5.10;;;4.60;;
2061;SDS011;11070;51.336;12.340;2022-10-28T09:34:28;9.57;;;5.07;;
2061;SDS011;11070;51.336;12.340;2022-10-28T09:37:18;7.50;;;5.43;;
2061;SDS011;11070;51.336;12.340;2022-10-28T09:39:52;7.90;;;4.53;;
2061;SDS011;11070;51.336;12.340;2022-10-28T09:42:24;8.53;;;4.93;;
2061;SDS011;11070;51.336;12.340;2022-10-28T09:44:57;5.37;;;4.30;;
2061;SDS011;11070;51.336;12.340;2022-10-28T09:47:33;11.93;;;5.20;;
2061;SDS011;11070;51.336;12.340;2022-10-28T09:50:03;7.53;;;5.23;;
2061;SDS011;11070;51.336;12.340;2022-10-28T09:52:33;7.63;;;5.30;;
2061;SDS011;11070;51.336;12.340;2022-10-28T09:55:11;8.50;;;5.10;;
2061;SDS011;11070;51.336;12.340;2022-10-28T09:57:44;6.43;;;5.10;;
2061;SDS011;11070;51.336;12.340;2022-10-28T10:00:12;10.77;;;5.23;;
2061;SDS011;11070;51.336;12.340;2022-10-28T10:02:40;7.87;;;4.77;;
2061;SDS011;11070;51.336;12.340;2022-10-28T10:05:13;6.13;;;5.40;;
2061;SDS011;11070;51.336;12.340;2022-10-28T10:07:48;5.33;;;4.83;;
2061;SDS011;11070;51.336;12.340;2022-10-28T10:10:41;9.07;;;5.30;;
2061;SDS011;11070;51.336;12.340;2022-10-28T10:13:23;7.37;;;4.83;;
2061;SDS011;11070;51.336;12.340;2022-10-28T10:15:53;8.17;;;5.23;;
2061;SDS011;11070;51.336;12.340;2022-10-28T10:18:26;8.47;;;4.73;;
2061;SDS011;11070;51.336;12.340;2022-10-28T10:20:55;5.70;;;4.70;;
2061;SDS011;11070;51.336;12.340;2022-10-28T10:23:35;11.63;;;5.60;;
2061;SDS011;11070;51.336;12.340;2022-10-28T10:26:08;9.20;;;5.13;;
2061;SDS011;11070;51.336;12.340;2022-10-28T10:28:46;8.93;;;5.13;;
2061;SDS011;11070;51.336;12.340;2022-10-28T10:31:26;7.33;;;5.60;;
2061;SDS011;11070;51.336;12.340;2022-10-28T10:33:56;12.63;;;5.10;;
2061;SDS011;11070;51.336;12.340;2022-10-28T10:36:23;9.87;;;5.23;;
2061;SDS011;11070;51.336;12.340;2022-10-28T10:38:57;11.60;;;5.13;;
2061;SDS011;11070;51.336;12.340;2022-10-28T10:41:34;8.13;;;4.70;;
2061;SDS011;11070;51.336;12.340;2022-10-28T10:47:09;10.97;;;4.90;;
2061;SDS011;11070;51.336;12.340;2022-10-28T10:49:34;11.97;;;5.10;;
2061;SDS011;11070;51.336;12.340;2022-10-28T10:52:01;8.77;;;4.60;;
2061;SDS011;11070;51.336;12.340;2022-10-28T10:54:32;4.90;;;4.07;;
2061;SDS011;11070;51.336;12.340;2022-10-28T10:57:33;6.80;;;4.30;;
2061;SDS011;11070;51.336;12.340;2022-10-28T10:59:52;6.33;;;4.10;;
2061;SDS011;11070;51.336;12.340;2022-10-28T11:05:00;6.57;;;3.97;;
2061;SDS011;11070;51.336;12.340;2022-10-28T11:07:30;7.23;;;3.63;;
2061;SDS011;11070;51.336;12.340;2022-10-28T11:09:56;5.90;;;3.90;;
2061;SDS011;11070;51.336;12.340;2022-10-28T11:12:24;6.00;;;4.03;;
2061;SDS011;11070;51.336;12.340;2022-10-28T11:14:54;6.07;;;3.57;;
2061;SDS011;11070;51.336;12.340;2022-10-28T11:17:25;7.47;;;3.87;;
2061;SDS011;11070;51.336;12.340;2022-10-28T11:19:56;6.10;;;4.00;;
2061;SDS011;11070;51.336;12.340;2022-10-28T11:25:24;5.80;;;3.93;;
2061;SDS011;11070;51.336;12.340;2022-10-28T11:30:53;11.17;;;3.97;;
2061;SDS011;11070;51.336;12.340;2022-10-28T11:39:20;6.50;;;4.17;;
2061;SDS011;11070;51.336;12.340;2022-10-28T11:53:15;6.43;;;3.90;;
2061;SDS011;11070;51.336;12.340;2022-10-28T11:56:05;5.70;;;4.20;;
2061;SDS011;11070;51.336;12.340;2022-10-28T12:01:40;10.80;;;4.30;;
2061;SDS011;11070;51.336;12.340;2022-10-28T12:12:59;16.63;;;4.67;;
2061;SDS011;11070;51.336;12.340;2022-10-28T12:18:00;8.43;;;3.90;;
2061;SDS011;11070;51.336;12.340;2022-10-28T12:20:43;6.20;;;3.80;;
2061;SDS011;11070;51.336;12.340;2022-10-28T12:23:19;6.90;;;3.60;;
2061;SDS011;11070;51.336;12.340;2022-10-28T12:25:48;7.07;;;3.60;;
2061;SDS011;11070;51.336;12.340;2022-10-28T12:28:20;11.83;;;3.70;;
2061;SDS011;11070;51.336;12.340;2022-10-28T12:30:50;4.30;;;3.30;;
2061;SDS011;11070;51.336;12.340;2022-10-28T12:33:28;12.60;;;3.83;;
2061;SDS011;11070;51.336;12.340;2022-10-28T12:38:29;9.97;;;3.87;;
2061;SDS011;11070;51.336;12.340;2022-10-28T12:52:19;10.53;;;3.83;;
2061;SDS011;11070;51.336;12.340;2022-10-28T12:54:53;11.33;;;4.70;;
2061;SDS011;11070;51.336;12.340;2022-10-28T12:57:41;14.33;;;4.47;;
2061;SDS011;11070;51.336;12.340;2022-10-28T13:00:18;13.17;;;5.07;;
2061;SDS011;11070;51.336;12.340;2022-10-28T13:03:04;14.00;;;4.00;;
2061;SDS011;11070;51.336;12.340;2022-10-28T13:08:47;10.87;;;4.60;;
2061;SDS011;11070;51.336;12.340;2022-10-28T13:19:45;9.70;;;4.27;;
2061;SDS011;11070;51.336;12.340;2022-10-28T13:25:19;8.40;;;4.80;;
2061;SDS011;11070;51.336;12.340;2022-10-28T13:27:56;7.53;;;4.80;;
2061;SDS011;11070;51.336;12.340;2022-10-28T13:30:23;10.50;;;4.67;;
2061;SDS011;11070;51.336;12.340;2022-10-28T13:35:26;9.77;;;4.60;;
2061;SDS011;11070;51.336;12.340;2022-10-28T13:37:53;5.30;;;4.30;;
2061;SDS011;11070;51.336;12.340;2022-10-28T13:40:21;12.97;;;5.10;;
2061;SDS011;11070;51.336;12.340;2022-10-28T13:42:58;6.87;;;4.57;;
2061;SDS011;11070;51.336;12.340;2022-10-28T13:56:08;6.77;;;4.07;;
2061;SDS011;11070;51.336;12.340;2022-10-28T13:58:54;6.33;;;4.10;;
2061;SDS011;11070;51.336;12.340;2022-10-28T14:04:20;6.83;;;4.03;;
2061;SDS011;11070;51.336;12.340;2022-10-28T14:09:45;12.20;;;4.40;;
2061;SDS011;11070;51.336;12.340;2022-10-28T14:17:37;9.33;;;4.53;;
2061;SDS011;11070;51.336;12.340;2022-10-28T14:20:06;13.27;;;4.03;;
2061;SDS011;11070;51.336;12.340;2022-10-28T14:22:54;5.60;;;4.00;;
2061;SDS011;11070;51.336;12.340;2022-10-28T14:43:57;10.10;;;4.70;;
2061;SDS011;11070;51.336;12.340;2022-10-28T14:49:02;9.40;;;4.23;;
2061;SDS011;11070;51.336;12.340;2022-10-28T14:51:56;8.73;;;4.13;;
2061;SDS011;11070;51.336;12.340;2022-10-28T14:57:13;7.10;;;4.47;;
2061;SDS011;11070;51.336;12.340;2022-10-28T14:59:46;8.83;;;4.33;;
2061;SDS011;11070;51.336;12.340;2022-10-28T15:04:39;15.17;;;5.10;;
2061;SDS011;11070;51.336;12.340;2022-10-28T15:07:09;8.60;;;4.80;;
2061;SDS011;11070;51.336;12.340;2022-10-28T15:09:38;5.20;;;3.83;;
2061;SDS011;11070;51.336;12.340;2022-10-28T15:12:10;10.90;;;5.03;;
2061;SDS011;11070;51.336;12.340;2022-10-28T15:14:43;6.77;;;4.50;;
2061;SDS011;11070;51.336;12.340;2022-10-28T15:17:19;8.47;;;4.73;;
2061;SDS011;11070;51.336;12.340;2022-10-28T15:19:54;8.07;;;4.47;;
2061;SDS011;11070;51.336;12.340;2022-10-28T15:22:22;8.83;;;4.70;;
2061;SDS011;11070;51.336;12.340;2022-10-28T15:24:53;8.80;;;5.23;;
2061;SDS011;11070;51.336;12.340;2022-10-28T15:27:21;7.73;;;4.80;;
2061;SDS011;11070;51.336;12.340;2022-10-28T15:29:48;9.00;;;5.10;;
2061;SDS011;11070;51.336;12.340;2022-10-28T15:34:43;9.10;;;5.37;;
2061;SDS011;11070;51.336;12.340;2022-10-28T15:37:09;6.63;;;4.73;;
2061;SDS011;11070;51.336;12.340;2022-10-28T15:39:40;12.70;;;5.20;;
2061;SDS011;11070;51.336;12.340;2022-10-28T15:42:24;12.73;;;5.67;;
2061;SDS011;11070;51.336;12.340;2022-10-28T15:44:54;9.23;;;5.40;;
2061;SDS011;11070;51.336;12.340;2022-10-28T15:47:28;7.87;;;4.90;;
2061;SDS011;11070;51.336;12.340;2022-10-28T15:49:58;9.20;;;5.47;;
2061;SDS011;11070;51.336;12.340;2022-10-28T15:52:32;8.73;;;4.70;;
2061;SDS011;11070;51.336;12.340;2022-10-28T15:55:02;7.00;;;4.80;;
2061;SDS011;11070;51.336;12.340;2022-10-28T16:00:52;10.20;;;5.10;;
2061;SDS011;11070;51.336;12.340;2022-10-28T16:03:26;10.20;;;5.70;;
2061;SDS011;11070;51.336;12.340;2022-10-28T16:06:04;10.97;;;5.20;;
2061;SDS011;11070;51.336;12.340;2022-10-28T16:08:31;12.60;;;5.90;;
2061;SDS011;11070;51.336;12.340;2022-10-28T16:16:02;10.30;;;7.10;;
2061;SDS011;11070;51.336;12.340;2022-10-28T16:18:41;10.02;;;5.50;;
2061;SDS011;11070;51.336;12.340;2022-10-28T16:21:43;13.43;;;6.07;;
2061;SDS011;11070;51.336;12.340;2022-10-28T16:24:02;9.13;;;5.35;;
2061;SDS011;11070;51.336;12.340;2022-10-28T16:26:29;11.10;;;5.60;;
2061;SDS011;11070;51.336;12.340;2022-10-28T16:28:57;9.50;;;5.65;;
2061;SDS011;11070;51.336;12.340;2022-10-28T16:31:23;9.20;;;5.60;;
2061;SDS011;11070;51.336;12.340;2022-10-28T16:33:52;9.65;;;5.93;;
2061;SDS011;11070;51.336;12.340;2022-10-28T16:36:18;7.40;;;6.13;;
2061;SDS011;11070;51.336;12.340;2022-10-28T16:38:44;7.38;;;5.90;;
2061;SDS011;11070;51.336;12.340;2022-10-28T16:41:12;9.63;;;5.20;;
2061;SDS011;11070;51.336;12.340;2022-10-28T16:43:40;10.45;;;5.60;;
2061;SDS011;11070;51.336;12.340;2022-10-28T16:46:07;8.93;;;5.50;;
2061;SDS011;11070;51.336;12.340;2022-10-28T16:48:35;14.05;;;6.35;;
2061;SDS011;11070;51.336;12.340;2022-10-28T16:51:02;11.20;;;5.90;;
2061;SDS011;11070;51.336;12.340;2022-10-28T16:53:29;7.97;;;5.13;;
2061;SDS011;11070;51.336;12.340;2022-10-28T16:55:55;13.90;;;5.43;;
2061;SDS011;11070;51.336;12.340;2022-10-28T16:58:24;9.85;;;5.35;;
2061;SDS011;11070;51.336;12.340;2022-10-28T17:00:51;13.35;;;6.25;;
2061;SDS011;11070;51.336;12.340;2022-10-28T17:03:17;9.50;;;5.20;;
2061;SDS011;11070;51.336;12.340;2022-10-28T17:05:43;9.60;;;5.70;;
2061;SDS011;11070;51.336;12.340;2022-10-28T17:08:14;14.30;;;5.80;;
2061;SDS011;11070;51.336;12.340;2022-10-28T17:10:40;13.15;;;7.05;;
2061;SDS011;11070;51.336;12.340;2022-10-28T17:13:13;11.20;;;5.40;;
2061;SDS011;11070;51.336;12.340;2022-10-28T17:15:40;10.77;;;5.72;;
2061;SDS011;11070;51.336;12.340;2022-10-28T17:18:10;10.32;;;5.22;;
2061;SDS011;11070;51.336;12.340;2022-10-28T17:20:39;12.85;;;5.65;;
2061;SDS011;11070;51.336;12.340;2022-10-28T17:23:05;8.80;;;5.53;;
2061;SDS011;11070;51.336;12.340;2022-10-28T17:25:30;9.40;;;5.70;;
2061;SDS011;11070;51.336;12.340;2022-10-28T17:27:56;10.47;;;6.27;;
2061;SDS011;11070;51.336;12.340;2022-10-28T17:30:24;9.63;;;5.90;;
2061;SDS011;11070;51.336;12.340;2022-10-28T17:32:51;7.97;;;5.57;;
2061;SDS011;11070;51.336;12.340;2022-10-28T17:35:18;11.13;;;5.63;;
2061;SDS011;11070;51.336;12.340;2022-10-28T17:37:46;9.63;;;6.63;;
2061;SDS011;11070;51.336;12.340;2022-10-28T17:40:11;14.10;;;6.20;;
2061;SDS011;11070;51.336;12.340;2022-10-28T17:42:37;12.90;;;6.60;;
2061;SDS011;11070;51.336;12.340;2022-10-28T17:45:04;11.90;;;5.67;;
2061;SDS011;11070;51.336;12.340;2022-10-28T17:47:33;9.40;;;5.65;;
2061;SDS011;11070;51.336;12.340;2022-10-28T17:49:59;16.67;;;6.15;;
2061;SDS011;11070;51.336;12.340;2022-10-28T17:52:25;9.43;;;5.83;;
2061;SDS011;11070;51.336;12.340;2022-10-28T17:54:52;19.45;;;6.05;;
2061;SDS011;11070;51.336;12.340;2022-10-28T17:57:17;9.10;;;5.70;;
2061;SDS011;11070;51.336;12.340;2022-10-28T17:59:43;7.27;;;5.93;;
2061;SDS011;11070;51.336;12.340;2022-10-28T18:02:09;10.93;;;6.70;;
2061;SDS011;11070;51.336;12.340;2022-10-28T18:04:37;9.05;;;5.90;;
2061;SDS011;11070;51.336;12.340;2022-10-28T18:07:02;15.60;;;5.80;;
2061;SDS011;11070;51.336;12.340;2022-10-28T18:09:28;7.33;;;5.33;;
2061;SDS011;11070;51.336;12.340;2022-10-28T18:11:56;15.82;;;6.60;;